Time;durP1;ratioP1;P1;durP2;ratioP2;P2;SDS_P1;SDS_P2;PMS_P1;PMS_P2;Temp;Humidity;BMP_temperature;BMP_pressure;BME280_temperature;BME280_humidity;BME280_pressure;Samples;Min_cycle;Max_cycle;Signal;HPM_P1;HPM_P2
2022/07/26 00:01:47;;;;;;;2.53;1.70;;;23.00;60.40;;;25.60;45.06;100958.47;5114515;28;20235;-61
2022/07/26 00:04:14;;;;;;;4.23;2.10;;;23.00;59.80;;;25.54;45.88;100961.16;5098505;28;20200;-61
2022/07/26 00:06:43;;;;;;;5.17;2.30;;;23.00;59.90;;;25.52;45.36;100976.00;5093773;28;20195;-61
2022/07/26 00:09:11;;;;;;;5.43;1.63;;;22.90;60.20;;;25.47;45.88;100976.78;5093464;28;20667;-62
2022/07/26 00:11:38;;;;;;;5.83;2.20;;;22.80;60.30;;;25.44;45.88;100969.22;5093189;28;20227;-61
2022/07/26 00:14:07;;;;;;;8.30;2.63;;;22.90;60.50;;;25.38;46.18;100972.97;5093177;28;20653;-61
2022/07/26 00:16:36;;;;;;;5.80;2.00;;;22.80;60.90;;;25.34;46.41;100969.16;5093542;28;20181;-61
2022/07/26 00:19:06;;;;;;;5.20;2.27;;;22.80;61.00;;;25.31;46.06;100969.72;5094507;28;20193;-62
2022/07/26 00:21:35;;;;;;;3.00;2.10;;;22.70;61.10;;;25.27;46.27;100965.91;5093284;28;20299;-61
2022/07/26 00:24:08;;;;;;;5.53;2.10;;;22.70;61.20;;;25.24;46.45;100969.16;5093538;28;20302;-61
2022/07/26 00:26:36;;;;;;;5.17;2.33;;;22.70;61.60;;;25.20;47.04;100962.66;5093700;28;20188;-62
2022/07/26 00:29:04;;;;;;;7.87;2.43;;;22.70;61.70;;;25.15;47.23;100970.72;5093398;28;20200;-62
2022/07/26 00:31:32;;;;;;;3.83;1.90;;;22.60;61.80;;;25.11;47.48;100969.66;5093165;28;20208;-62
2022/07/26 00:34:00;;;;;;;4.27;1.97;;;22.60;61.90;;;25.10;46.84;100968.06;5093454;28;20224;-62
2022/07/26 00:36:28;;;;;;;6.60;1.80;;;22.50;62.00;;;25.08;47.21;100972.88;5094528;28;20195;-62
2022/07/26 00:38:55;;;;;;;5.47;2.30;;;22.50;62.20;;;25.07;47.54;100971.25;5093450;28;20524;-61
2022/07/26 00:41:24;;;;;;;4.53;2.33;;;22.50;62.40;;;25.04;46.95;100966.41;5092796;28;20234;-62
2022/07/26 00:43:58;;;;;;;5.37;2.57;;;22.40;62.40;;;25.03;47.50;100972.84;5093274;28;20187;-62
2022/07/26 00:46:25;;;;;;;5.47;2.30;;;22.40;62.70;;;25.01;47.61;100972.31;5093572;28;20207;-62
2022/07/26 00:48:53;;;;;;;3.77;1.70;;;22.40;62.70;;;25.01;47.34;100969.63;5093356;28;20192;-62
2022/07/26 00:51:21;;;;;;;4.23;1.80;;;22.40;62.80;;;25.00;47.93;100976.09;5092825;28;20209;-62
2022/07/26 00:53:49;;;;;;;5.00;2.30;;;22.40;63.20;;;24.97;48.08;100968.53;5108092;28;20198;-61
2022/07/26 00:56:16;;;;;;;4.57;1.97;;;22.40;63.30;;;24.94;48.29;100968.25;5113813;28;20194;-62
2022/07/26 00:58:45;;;;;;;5.50;2.60;;;22.30;63.50;;;24.92;47.77;100971.19;5113803;28;20580;-63
2022/07/26 01:01:13;;;;;;;8.13;2.60;;;22.30;64.40;;;24.93;47.80;100967.44;5113301;28;20219;-63
2022/07/26 01:03:41;;;;;;;6.13;2.43;;;22.30;64.00;;;24.94;48.16;100963.66;5114215;28;20195;-61
2022/07/26 01:06:08;;;;;;;6.07;2.10;;;22.30;64.20;;;24.98;48.25;100972.03;5114074;28;20188;-63
2022/07/26 01:08:36;;;;;;;6.13;2.40;;;22.30;64.40;;;24.98;48.32;100970.16;5109227;28;20185;-62
2022/07/26 01:11:04;;;;;;;6.93;2.83;;;22.30;64.70;;;24.98;48.59;100962.06;5092729;28;20188;-62
2022/07/26 01:13:33;;;;;;;6.87;2.93;;;22.30;64.90;;;24.98;49.00;100962.06;5093208;28;20516;-62
2022/07/26 01:16:03;;;;;;;9.70;2.97;;;22.30;65.20;;;24.98;49.01;100964.78;5093398;28;20197;-62
2022/07/26 01:18:31;;;;;;;9.27;2.83;;;22.30;65.10;;;24.98;48.83;100967.47;5093251;28;20189;-62
2022/07/26 01:21:02;;;;;;;6.77;3.10;;;22.30;65.40;;;24.95;49.50;100957.22;5092943;28;20209;-62
2022/07/26 01:23:43;;;;;;;9.13;2.83;;;22.30;65.60;;;24.92;49.57;100962.31;5093275;28;20269;-62
2022/07/26 01:26:11;;;;;;;13.00;2.67;;;22.30;65.70;;;24.89;49.31;100959.06;5106699;28;20196;-62
2022/07/26 01:28:41;;;;;;;9.67;3.60;;;22.20;65.90;;;24.85;49.96;100957.97;5117192;28;20188;-62
2022/07/26 01:31:08;;;;;;;9.37;2.67;;;22.30;66.40;;;24.80;49.80;100962.53;5116893;28;20188;-62
2022/07/26 01:33:36;;;;;;;6.97;2.70;;;22.20;66.40;;;24.77;50.13;100960.38;5117131;28;20187;-62
2022/07/26 01:36:04;;;;;;;7.17;2.90;;;22.20;66.40;;;24.76;50.05;100954.19;5116863;28;20191;-63
2022/07/26 01:38:31;;;;;;;5.77;2.93;;;22.20;66.90;;;24.74;50.48;100952.78;5117073;28;20190;-62
2022/07/26 01:41:00;;;;;;;8.63;2.80;;;22.20;66.90;;;24.71;50.54;100953.31;5116377;27;20260;-62
2022/07/26 01:43:27;;;;;;;11.10;3.10;;;22.10;67.30;;;24.69;50.42;100947.38;5115407;28;20215;-62
2022/07/26 01:45:55;;;;;;;7.37;2.80;;;22.10;67.40;;;24.68;50.43;100954.63;5116551;28;20188;-63
2022/07/26 01:48:23;;;;;;;7.13;3.03;;;22.10;67.60;;;24.68;50.69;100960.03;5115611;28;20211;-62
2022/07/26 01:50:53;;;;;;;6.63;2.70;;;22.00;67.60;;;24.63;50.67;100960.00;5116524;27;20188;-63
2022/07/26 01:53:21;;;;;;;9.97;2.87;;;22.00;68.70;;;24.62;51.18;100954.88;5116700;28;20176;-62
2022/07/26 01:55:49;;;;;;;6.97;2.70;;;22.00;67.90;;;24.61;51.12;100950.56;5117049;28;20220;-61
2022/07/26 01:58:18;;;;;;;8.33;2.83;;;22.00;68.20;;;24.57;51.45;100954.84;5110367;28;20216;-62
2022/07/26 02:00:46;;;;;;;7.97;2.90;;;22.00;68.50;;;24.54;51.59;100956.19;5095914;28;20217;-62
2022/07/26 02:03:14;;;;;;;7.97;2.87;;;22.00;68.70;;;24.53;51.52;100964.53;5096404;28;20703;-62
2022/07/26 02:05:41;;;;;;;8.00;3.13;;;21.90;68.60;;;24.51;51.87;100966.69;5095039;28;20189;-62
2022/07/26 02:08:09;;;;;;;12.37;3.90;;;21.90;69.00;;;24.50;51.95;100962.34;5096887;28;20184;-60
2022/07/26 02:13:25;;;;;;;7.13;2.70;;;21.90;69.20;;;24.51;51.83;100953.22;5096861;28;20181;-62
2022/07/26 02:15:53;;;;;;;8.87;3.47;;;21.90;69.20;;;24.50;51.87;100948.88;5096149;28;20552;-61
2022/07/26 02:18:20;;;;;;;11.87;3.13;;;21.90;69.50;;;24.50;51.97;100956.97;5095962;28;20657;-62
2022/07/26 02:20:47;;;;;;;7.77;3.10;;;21.90;69.50;;;24.49;51.68;100963.41;5095552;28;20223;-62
2022/07/26 02:23:15;;;;;;;9.87;2.87;;;21.90;69.80;;;24.50;51.97;100967.72;5095597;28;20212;-62
2022/07/26 02:25:42;;;;;;;6.97;2.80;;;21.90;69.80;;;24.50;51.71;100971.25;5095413;28;20203;-62
2022/07/26 02:28:09;;;;;;;8.07;3.40;;;21.90;69.80;;;24.50;51.94;100965.84;5095547;28;20196;-63
2022/07/26 02:30:39;;;;;;;8.53;3.20;;;21.80;69.80;;;24.48;52.15;100967.19;5096445;28;20187;-62
2022/07/26 02:33:06;;;;;;;9.10;3.47;;;21.80;69.90;;;24.48;51.91;100967.19;5095257;28;20217;-62
2022/07/26 02:35:34;;;;;;;8.47;2.70;;;21.80;69.70;;;24.49;52.06;100968.78;5095874;28;20193;-61
2022/07/26 02:38:03;;;;;;;8.33;2.83;;;21.80;69.70;;;24.51;51.76;100966.69;5095421;28;20188;-62
2022/07/26 02:40:31;;;;;;;7.17;2.60;;;21.80;69.80;;;24.51;51.62;100963.97;5095376;28;20199;-62
2022/07/26 02:42:59;;;;;;;6.60;3.17;;;21.80;69.70;;;24.51;52.07;100966.69;5095828;28;20254;-62
2022/07/26 02:45:27;;;;;;;7.60;2.70;;;21.80;69.80;;;24.51;51.80;100967.47;5095663;28;20222;-62
2022/07/26 02:47:56;;;;;;;6.67;2.77;;;21.80;70.00;;;24.51;51.42;100962.06;5106178;28;20210;-62
2022/07/26 02:50:26;;;;;;;9.67;3.27;;;21.80;69.80;;;24.49;52.22;100971.47;5115507;28;20192;-60
2022/07/26 02:52:54;;;;;;;6.50;3.20;;;21.80;69.90;;;24.45;52.11;100973.91;5115524;28;20212;-62
2022/07/26 02:55:24;;;;;;;6.23;2.57;;;21.80;69.80;;;24.42;52.30;100977.09;5115181;28;20184;-62
2022/07/26 02:57:52;;;;;;;9.27;2.80;;;21.80;70.10;;;24.38;52.08;100977.88;5115434;28;20212;-63
2022/07/26 03:00:23;;;;;;;6.47;2.70;;;21.70;69.90;;;24.35;52.10;100986.47;5114104;28;20564;-60
2022/07/26 03:02:51;;;;;;;7.37;2.83;;;21.70;70.00;;;24.31;52.25;100988.88;5115258;28;20676;-62
2022/07/26 03:05:21;;;;;;;8.83;3.13;;;21.70;70.40;;;24.31;52.70;100993.44;5113339;28;20249;-62
2022/07/26 03:07:48;;;;;;;8.53;3.03;;;21.70;70.70;;;24.33;52.68;100996.69;5115133;28;20195;-63
2022/07/26 03:10:16;;;;;;;10.20;3.23;;;21.70;70.60;;;24.34;52.39;100996.44;5114940;28;20206;-62
2022/07/26 03:12:44;;;;;;;11.83;3.40;;;21.70;70.70;;;24.38;52.74;100994.84;5114408;28;20203;-63
2022/07/26 03:15:11;;;;;;;9.97;3.37;;;21.70;70.80;;;24.37;52.91;100998.59;5114982;28;20184;-63
2022/07/26 03:17:39;;;;;;;9.17;3.33;;;21.70;70.90;;;24.37;52.80;100992.41;5114830;28;20188;-63
2022/07/26 03:20:08;;;;;;;10.73;3.13;;;21.70;71.00;;;24.38;52.03;100999.41;5113184;28;20185;-63
2022/07/26 03:22:37;;;;;;;8.97;3.20;;;21.70;71.00;;;24.37;52.52;101005.84;5082130;28;20216;-61
2022/07/26 03:25:06;;;;;;;6.50;3.00;;;21.70;71.00;;;24.36;52.62;101010.44;5094300;28;20193;-62
2022/07/26 03:27:34;;;;;;;8.53;3.00;;;21.70;71.10;;;24.33;52.35;101007.44;5094529;28;20200;-61
2022/07/26 03:30:02;;;;;;;7.07;2.47;;;21.70;71.10;;;24.28;52.96;101000.16;5094461;28;20267;-62
2022/07/26 03:32:29;;;;;;;9.97;3.00;;;21.60;71.00;;;24.25;52.83;101002.56;5092785;28;20209;-62
2022/07/26 03:34:57;;;;;;;6.73;3.03;;;21.60;71.10;;;24.23;52.49;100998.25;5094209;28;20185;-60
2022/07/26 03:37:24;;;;;;;10.87;3.53;;;21.60;71.20;;;24.21;52.78;101005.75;5095408;28;20683;-62
2022/07/26 03:40:14;;;;;;;10.63;3.30;;;21.60;71.20;;;24.18;53.02;101003.59;5094172;28;20649;-62
2022/07/26 03:42:42;;;;;;;9.20;3.20;;;21.60;71.30;;;24.18;52.62;101005.44;5093741;28;20693;-62
2022/07/26 03:45:11;;;;;;;6.77;2.40;;;21.50;71.20;;;24.19;52.98;101002.53;5094016;28;20276;-62
2022/07/26 03:47:39;;;;;;;8.30;2.57;;;21.50;71.40;;;24.18;53.04;101011.66;5094052;28;20192;-62
2022/07/26 03:50:08;;;;;;;16.53;3.17;;;21.50;71.60;;;24.20;53.01;101012.19;5093513;28;20641;-62
2022/07/26 03:52:35;;;;;;;7.87;3.13;;;21.50;71.60;;;24.20;53.24;101014.91;5093445;28;20208;-62
2022/07/26 03:56:27;;;;;;;8.47;2.60;;;21.50;71.70;;;24.21;53.22;101011.16;5095131;28;20245;-62
2022/07/26 03:57:52;;;;;;;8.27;3.10;;;21.50;71.80;;;24.22;52.88;101018.13;5093647;28;20192;-62
2022/07/26 04:00:19;;;;;;;8.43;3.13;;;21.60;71.90;;;24.22;53.17;101012.75;5093699;28;20200;-62
2022/07/26 04:02:47;;;;;;;10.60;3.27;;;21.50;71.60;;;24.21;53.26;101021.91;5093771;28;20216;-62
2022/07/26 04:05:14;;;;;;;5.63;2.47;;;21.50;71.90;;;24.23;52.92;101021.66;5093648;28;20271;-61
2022/07/26 04:07:43;;;;;;;8.20;3.20;;;21.60;72.00;;;24.25;52.94;101022.19;5093659;28;20195;-62
2022/07/26 04:10:21;;;;;;;10.60;3.40;;;21.50;72.00;;;24.24;53.26;101020.59;5103350;28;20191;-62
2022/07/26 04:12:49;;;;;;;8.47;3.33;;;21.50;71.80;;;24.23;53.19;101030.53;5113856;28;20212;-61
2022/07/26 04:15:20;;;;;;;8.40;3.30;;;21.50;72.00;;;24.23;53.10;101035.91;5113955;28;20210;-62
2022/07/26 04:17:48;;;;;;;8.57;3.53;;;21.60;72.30;;;24.26;52.98;101034.59;5113954;28;20607;-62
2022/07/26 04:20:16;;;;;;;8.13;3.07;;;21.50;73.00;;;24.30;53.11;101034.88;5113705;28;20188;-62
2022/07/26 04:22:43;;;;;;;7.73;3.20;;;21.50;72.40;;;24.34;52.96;101044.06;5113242;28;20211;-62
2022/07/26 04:25:11;;;;;;;6.50;2.40;;;21.50;72.50;;;24.36;53.01;101039.25;5114032;28;20196;-62
2022/07/26 04:27:38;;;;;;;11.47;3.37;;;21.60;72.50;;;24.33;53.35;101042.44;5111931;28;20194;-62
2022/07/26 04:30:08;;;;;;;13.37;4.37;;;21.60;72.60;;;24.34;53.17;101041.38;5113550;28;20219;-60
2022/07/26 04:32:43;;;;;;;8.67;3.20;;;21.60;72.60;;;24.33;53.42;101042.44;5113877;28;20230;-61
2022/07/26 04:35:15;;;;;;;9.73;3.13;;;21.60;72.70;;;24.35;53.23;101048.38;5113457;28;20188;-62
2022/07/26 04:37:44;;;;;;;10.50;3.63;;;21.60;72.70;;;24.38;53.68;101042.47;5113953;28;20192;-62
2022/07/26 04:40:18;;;;;;;9.83;4.00;;;21.60;72.80;;;24.37;53.48;101046.22;5113789;28;20194;-62
2022/07/26 04:42:49;;;;;;;11.00;3.50;;;21.60;72.90;;;24.36;53.22;101042.75;5111911;28;20217;-62
2022/07/26 04:45:17;;;;;;;12.20;3.20;;;21.60;72.90;;;24.35;53.38;101045.69;5113851;28;20717;-62
2022/07/26 04:47:49;;;;;;;9.47;3.47;;;21.60;73.00;;;24.31;53.74;101048.09;5113200;28;20187;-63
2022/07/26 04:50:19;;;;;;;12.70;3.33;;;21.60;73.20;;;24.28;53.79;101043.22;5113313;28;20179;-62
2022/07/26 04:52:47;;;;;;;8.77;3.60;;;21.60;73.30;;;24.28;53.79;101042.41;5112728;28;20208;-63
2022/07/26 04:55:16;;;;;;;9.20;3.20;;;21.60;73.30;;;24.31;53.55;101044.56;5113153;28;20195;-62
2022/07/26 04:57:44;;;;;;;9.27;3.70;;;21.60;73.40;;;24.35;53.96;101043.81;5113104;28;20200;-62
2022/07/26 05:00:20;;;;;;;12.50;3.50;;;21.60;73.40;;;24.41;53.75;101036.59;5097586;28;20572;-62
2022/07/26 05:02:54;;;;;;;10.07;3.33;;;21.60;73.50;;;24.45;53.69;101045.75;5097074;28;20216;-61
2022/07/26 05:05:22;;;;;;;6.57;3.07;;;21.60;73.40;;;24.48;53.49;101042.56;5097294;28;20193;-62
2022/07/26 05:07:54;;;;;;;10.23;3.63;;;21.70;73.50;;;24.48;53.83;101047.94;5097042;28;20581;-62
2022/07/26 05:10:28;;;;;;;10.40;3.73;;;21.70;73.50;;;24.46;54.06;101050.09;5096549;28;20189;-62
2022/07/26 05:12:56;;;;;;;6.30;2.90;;;21.70;73.30;;;24.50;53.56;101045.81;5096792;28;20199;-60
2022/07/26 05:15:24;;;;;;;9.13;3.43;;;21.70;73.30;;;24.57;53.18;101046.38;5097720;28;20769;-62
2022/07/26 05:18:05;;;;;;;10.40;3.83;;;21.80;73.40;;;24.60;53.42;101048.56;5096701;28;20215;-62
2022/07/26 05:20:35;;;;;;;8.73;3.17;;;21.80;73.30;;;24.61;53.63;101050.19;5096110;28;20238;-61
2022/07/26 05:23:05;;;;;;;8.87;3.00;;;21.80;73.10;;;24.62;53.38;101051.81;5096161;28;20275;-62
2022/07/26 05:25:33;;;;;;;7.80;3.83;;;21.80;73.10;;;24.66;53.87;101058.28;5096122;28;20188;-61
2022/07/26 05:28:00;;;;;;;9.10;3.57;;;21.80;73.70;;;24.63;54.16;101061.50;5094609;28;20201;-62
2022/07/26 05:30:28;;;;;;;10.80;3.30;;;21.90;73.90;;;24.62;53.96;101060.69;5096143;28;20199;-62
2022/07/26 05:32:56;;;;;;;7.57;3.50;;;21.90;74.40;;;24.60;54.75;101067.41;5111288;28;20211;-62
2022/07/26 05:35:24;;;;;;;6.87;3.33;;;21.80;74.80;;;24.52;54.44;101075.97;5116735;28;20188;-62
2022/07/26 05:38:07;;;;;;;7.90;3.07;;;21.80;75.00;;;24.41;55.37;101079.66;5082913;28;20291;-62
2022/07/26 05:40:34;;;;;;;9.83;3.83;;;21.70;75.80;;;24.37;55.41;101086.59;5116431;28;20191;-62
2022/07/26 05:43:04;;;;;;;5.00;3.10;;;21.70;76.40;;;24.35;56.13;101086.88;5116289;28;20598;-62
2022/07/26 05:45:31;;;;;;;7.17;3.43;;;21.70;76.90;;;24.37;56.43;101100.06;5116748;28;20188;-61
2022/07/26 05:47:58;;;;;;;7.00;3.20;;;21.60;77.20;;;24.38;56.59;101107.06;5114604;28;20589;-61
2022/07/26 05:50:27;;;;;;;4.33;2.83;;;21.60;77.20;;;24.38;55.73;101101.69;5117779;28;20191;-62
2022/07/26 05:52:55;;;;;;;6.63;3.07;;;21.60;77.30;;;24.37;56.11;101105.44;5121599;28;20687;-61
2022/07/26 05:55:22;;;;;;;4.70;2.03;;;21.60;77.50;;;24.36;56.13;101120.81;5119359;28;20188;-61
2022/07/26 05:57:50;;;;;;;4.83;2.90;;;21.50;77.60;;;24.33;56.76;101110.53;5116290;28;20582;-62
2022/07/26 06:00:19;;;;;;;4.53;2.70;;;21.50;77.80;;;24.29;56.52;101120.19;5115942;28;20190;-61
2022/07/26 06:02:49;;;;;;;4.67;2.60;;;21.50;77.60;;;24.28;56.12;101125.81;5115183;28;20215;-61
2022/07/26 06:05:17;;;;;;;9.47;3.83;;;21.50;77.80;;;24.29;56.21;101130.16;5103073;28;20193;-62
2022/07/26 06:07:46;;;;;;;3.90;2.50;;;21.50;78.10;;;24.29;56.74;101136.34;5095470;28;20200;-60
2022/07/26 06:10:13;;;;;;;4.53;2.50;;;21.40;78.20;;;24.28;56.29;101133.88;5095095;28;20216;-61
2022/07/26 06:12:40;;;;;;;5.17;2.70;;;21.50;77.80;;;24.29;56.32;101138.22;5094340;28;20216;-61
2022/07/26 06:15:08;;;;;;;5.43;2.47;;;21.50;77.70;;;24.30;55.78;101137.13;5095542;28;20291;-63
2022/07/26 06:17:42;;;;;;;4.93;2.50;;;21.40;76.80;;;24.31;55.48;101134.22;5094265;28;20641;-61
2022/07/26 06:20:10;;;;;;;5.73;2.60;;;21.40;76.70;;;24.37;55.86;101127.78;5095317;28;20189;-62
2022/07/26 06:22:38;;;;;;;4.00;2.30;;;21.50;76.50;;;24.43;55.04;101125.97;5095505;28;20220;-62
2022/07/26 06:25:08;;;;;;;5.27;2.23;;;21.50;76.40;;;24.47;54.89;101132.44;5095574;28;20200;-59
2022/07/26 06:27:35;;;;;;;5.03;2.60;;;21.50;75.90;;;24.52;54.55;101135.19;5095256;28;20661;-64
2022/07/26 06:30:06;;;;;;;4.03;2.13;;;21.60;75.60;;;24.57;54.00;101132.53;5095187;28;20219;-62
2022/07/26 06:32:33;;;;;;;6.20;2.00;;;21.60;75.10;;;24.62;54.39;101146.03;5094670;28;20275;-61
2022/07/26 06:35:00;;;;;;;6.63;2.40;;;21.60;75.20;;;24.70;53.85;101156.31;5107102;28;20631;-64
2022/07/26 06:37:28;;;;;;;6.40;2.33;;;21.60;75.50;;;24.75;53.40;101140.22;5110613;28;20196;-63
2022/07/26 06:39:55;;;;;;;6.20;2.03;;;21.70;74.70;;;24.78;53.83;101145.94;5126883;28;20198;-61
2022/07/26 06:42:24;;;;;;;5.63;2.67;;;21.70;74.60;;;24.81;53.70;101150.81;5115812;28;20315;-60
2022/07/26 06:44:52;;;;;;;7.20;2.77;;;21.80;74.80;;;24.84;53.84;101154.88;5115020;28;20184;-62
2022/07/26 06:47:19;;;;;;;6.10;2.70;;;21.80;74.60;;;24.88;54.17;101150.59;5114717;28;20188;-61
2022/07/26 06:49:46;;;;;;;6.70;2.97;;;21.90;75.10;;;24.92;54.14;101157.06;5114378;28;20188;-59
2022/07/26 06:52:14;;;;;;;6.70;3.30;;;21.90;75.00;;;24.97;53.97;101165.19;5114344;28;20234;-61
2022/07/26 06:54:41;;;;;;;5.17;2.33;;;21.90;74.30;;;24.95;53.69;101171.91;5112963;28;20191;-60
2022/07/26 06:57:09;;;;;;;4.50;1.73;;;22.00;74.40;;;24.89;53.06;101176.44;5114553;28;20196;-60
2022/07/26 06:59:38;;;;;;;4.63;1.60;;;22.00;73.20;;;24.86;52.57;101174.28;5114581;28;20184;-62
2022/07/26 07:02:05;;;;;;;2.97;1.93;;;21.90;72.20;;;24.81;51.75;101179.63;5114530;28;20215;-62
2022/07/26 07:04:33;;;;;;;4.80;1.90;;;21.90;70.80;;;24.75;51.53;101191.38;5114986;28;20190;-60
2022/07/26 07:07:07;;;;;;;4.80;1.50;;;21.90;70.30;;;24.71;50.68;101192.97;5114945;28;20184;-61
2022/07/26 07:09:36;;;;;;;2.67;1.70;;;21.80;69.30;;;24.69;50.91;101197.81;5113028;27;20211;-60
2022/07/26 07:12:06;;;;;;;3.60;1.70;;;21.80;69.90;;;24.71;50.57;101198.34;5073866;28;20223;-62
2022/07/26 07:14:38;;;;;;;3.50;1.90;;;21.70;70.00;;;24.75;50.10;101191.38;5074237;28;20209;-62
2022/07/26 07:17:07;;;;;;;3.20;1.50;;;21.70;69.60;;;24.82;50.17;101194.69;5073368;28;20595;-62
2022/07/26 07:19:40;;;;;;;4.30;2.40;;;21.80;69.50;;;24.92;50.12;101194.78;5074319;28;20186;-58
2022/07/26 07:22:10;;;;;;;2.23;1.40;;;21.80;69.60;;;25.01;49.29;101193.22;5073116;28;20220;-63
2022/07/26 07:24:39;;;;;;;3.03;1.50;;;21.80;68.50;;;25.10;49.46;101194.41;5072729;28;20256;-62
2022/07/26 07:27:07;;;;;;;3.03;1.93;;;21.90;70.00;;;25.19;49.94;101192.03;5085481;28;20199;-62
2022/07/26 07:29:38;;;;;;;1.87;1.20;;;21.90;69.80;;;25.29;49.54;101205.56;5093383;28;20291;-61
2022/07/26 07:32:08;;;;;;;3.50;2.07;;;22.10;69.90;;;25.38;49.89;101207.50;5093376;28;20753;-63
2022/07/26 07:34:46;;;;;;;2.57;1.23;;;22.10;69.50;;;25.42;48.72;101205.91;5093595;28;20208;-63
2022/07/26 07:37:14;;;;;;;9.80;1.60;;;22.20;68.10;;;25.45;48.42;101200.03;5092809;28;20192;-61
2022/07/26 07:39:42;;;;;;;4.43;2.33;;;22.20;68.20;;;25.49;48.53;101203.81;5093318;28;20276;-62
2022/07/26 07:42:09;;;;;;;3.53;1.57;;;22.30;68.00;;;25.44;48.28;101214.56;5093319;28;20228;-62
2022/07/26 07:44:40;;;;;;;4.33;1.27;;;22.30;66.90;;;25.25;48.28;101218.75;5094388;28;20553;-61
2022/07/26 07:47:07;;;;;;;1.53;1.00;;;22.20;66.70;;;25.06;48.06;101228.31;5093768;28;20675;-61
2022/07/26 07:49:36;;;;;;;3.03;1.20;;;22.10;66.10;;;24.91;48.10;101235.47;5093723;28;20306;-61
2022/07/26 07:52:04;;;;;;;3.17;1.10;;;22.00;64.70;;;24.79;47.61;101239.13;5093053;28;20573;-62
2022/07/26 07:54:31;;;;;;;2.03;1.10;;;21.80;65.30;;;24.75;47.97;101247.94;5093752;28;20193;-62
2022/07/26 07:56:59;;;;;;;1.30;1.20;;;21.70;65.60;;;24.73;47.69;101245.50;5093709;28;20192;-62
2022/07/26 07:59:26;;;;;;;2.97;1.70;;;21.70;65.70;;;24.77;47.53;101245.84;5094499;28;20525;-61
2022/07/26 08:01:56;;;;;;;2.77;1.90;;;21.60;66.00;;;24.83;47.86;101250.22;5093036;28;20655;-62
2022/07/26 08:04:23;;;;;;;4.33;1.67;;;21.60;66.10;;;24.82;47.79;101259.34;5092744;28;20231;-63
2022/07/26 08:06:51;;;;;;;3.53;1.93;;;21.60;66.00;;;24.77;47.55;101262.81;5093773;28;20189;-63
2022/07/26 08:09:19;;;;;;;4.80;1.97;;;21.60;66.50;;;24.79;47.62;101270.66;5093574;28;20189;-61
2022/07/26 08:11:47;;;;;;;3.13;1.77;;;21.60;66.50;;;24.81;47.42;101269.34;5093289;28;20218;-62
2022/07/26 08:14:17;;;;;;;4.33;1.43;;;21.60;66.40;;;24.88;47.48;101269.13;5093131;28;20188;-61
2022/07/26 08:16:45;;;;;;;3.33;1.20;;;21.60;66.50;;;25.01;47.38;101268.69;5094212;28;20541;-61
2022/07/26 08:19:14;;;;;;;2.33;1.37;;;21.70;66.70;;;25.23;47.49;101260.50;5092927;28;20272;-62
2022/07/26 08:21:44;;;;;;;3.57;2.07;;;21.80;66.40;;;25.79;46.82;101269.81;5092529;28;20231;-62
2022/07/26 08:24:13;;;;;;;4.83;3.00;;;22.00;66.60;;;26.54;45.26;101270.09;5092660;28;20269;-60
2022/07/26 08:26:40;;;;;;;4.47;2.50;;;22.30;65.60;;;27.07;43.72;101281.53;5093264;28;20191;-63
2022/07/26 08:29:08;;;;;;;7.47;2.50;;;22.70;64.00;;;27.31;42.63;101282.63;5092812;28;20196;-62
2022/07/26 08:31:35;;;;;;;3.60;3.20;;;23.10;61.90;;;27.47;42.49;101292.34;5092829;28;20330;-63
2022/07/26 08:34:03;;;;;;;3.67;1.90;;;23.30;61.60;;;27.72;41.39;101292.28;5094004;28;20485;-62
2022/07/26 08:36:31;;;;;;;5.33;1.53;;;23.60;59.90;;;27.88;40.73;101293.09;5093055;28;20192;-63
2022/07/26 08:38:59;;;;;;;2.10;1.17;;;23.70;58.70;;;28.05;40.42;101299.00;5093061;28;20265;-62
2022/07/26 08:41:27;;;;;;;4.40;2.40;;;24.00;58.70;;;28.19;40.34;101294.63;5092612;28;20580;-63
2022/07/26 08:44:03;;;;;;;4.87;2.60;;;24.10;58.60;;;28.33;40.24;101294.81;5093118;28;20212;-61
2022/07/26 08:46:35;;;;;;;2.00;1.90;;;24.30;58.50;;;28.70;39.73;101300.59;5093137;28;20262;-63
2022/07/26 08:49:05;;;;;;;4.00;2.10;;;24.50;57.90;;;28.78;39.08;101314.38;5094303;28;20564;-61
2022/07/26 08:51:39;;;;;;;2.50;1.67;;;24.60;57.20;;;28.67;39.20;101309.28;5092848;28;20240;-63
2022/07/26 08:54:06;;;;;;;5.87;2.57;;;24.80;57.50;;;28.48;39.15;101316.41;5092937;28;20617;-61
2022/07/26 08:56:39;;;;;;;3.23;1.97;;;24.70;56.10;;;28.04;39.55;101338.81;5092998;28;20260;-61
2022/07/26 08:59:13;;;;;;;3.10;1.60;;;24.60;56.10;;;27.50;39.49;101337.81;5093611;28;20215;-62
2022/07/26 09:01:56;;;;;;;3.63;1.63;;;24.30;55.10;;;26.91;40.47;101350.19;5093193;28;20204;-63
2022/07/26 09:04:27;;;;;;;6.20;1.53;;;23.90;56.10;;;26.50;41.47;101347.34;5093058;28;20222;-62
2022/07/26 09:07:05;;;;;;;3.93;1.20;;;23.60;57.20;;;26.20;42.16;101355.31;5093343;28;20652;-63
2022/07/26 09:09:36;;;;;;;2.37;1.40;;;23.30;57.50;;;26.00;42.49;101355.19;5091822;28;20549;-61
2022/07/26 09:12:15;;;;;;;3.93;1.90;;;23.00;58.20;;;26.07;43.37;101363.84;5091510;28;20212;-62
2022/07/26 09:14:46;;;;;;;4.57;2.73;;;22.80;59.40;;;26.40;42.37;101363.50;5090564;28;20594;-62
2022/07/26 09:17:17;;;;;;;6.73;3.33;;;22.80;59.40;;;26.97;41.95;101368.03;5092051;28;20197;-64
2022/07/26 09:20:01;;;;;;;7.40;2.10;;;23.00;59.40;;;27.73;40.66;101369.69;5092317;28;20203;-63
2022/07/26 09:22:30;;;;;;;9.40;2.27;;;23.30;59.50;;;28.64;38.30;101364.88;5093031;28;20215;-63
2022/07/26 09:24:58;;;;;;;4.97;1.90;;;23.70;57.90;;;28.86;37.49;101372.59;5092693;28;20212;-61
2022/07/26 09:27:35;;;;;;;3.77;1.83;;;24.10;55.90;;;28.80;37.00;101376.44;5092144;28;20215;-62
2022/07/26 09:30:07;;;;;;;5.17;1.27;;;24.40;54.90;;;28.87;36.24;101382.34;5092627;28;20192;-62
2022/07/26 09:32:35;;;;;;;4.60;2.13;;;24.50;53.10;;;28.71;36.22;101372.69;5092068;28;20204;-60
2022/07/26 09:35:12;;;;;;;6.27;1.90;;;24.50;52.90;;;28.80;36.59;101393.50;5091084;27;20677;-60
2022/07/26 09:38:10;;;;;;;4.93;3.30;;;24.70;52.80;;;28.88;36.02;101378.56;5083550;28;20232;-62
2022/07/26 09:40:38;;;;;;;4.57;2.97;;;24.70;52.50;;;28.81;35.66;101378.06;5088933;28;20549;-62
2022/07/26 09:43:06;;;;;;;5.43;4.03;;;24.80;51.80;;;28.86;35.77;101385.34;5090350;28;20220;-62
2022/07/26 09:45:37;;;;;;;5.50;3.57;;;24.90;52.30;;;28.93;35.87;101385.84;5070153;28;20205;-61
2022/07/26 09:48:10;;;;;;;4.93;2.97;;;25.00;52.20;;;28.79;35.75;101388.34;5083647;28;20216;-61
2022/07/26 09:50:38;;;;;;;4.10;2.07;;;25.00;51.10;;;28.54;35.17;101391.97;5090641;28;20606;-63
2022/07/26 09:53:09;;;;;;;4.77;2.03;;;24.90;50.00;;;28.12;35.69;101392.38;5084148;28;20220;-64
2022/07/26 09:55:55;;;;;;;4.17;1.80;;;24.70;50.30;;;27.67;36.16;101399.75;5092092;28;20195;-61
2022/07/26 09:58:26;;;;;;;5.10;2.73;;;24.50;50.30;;;27.36;36.54;101405.09;5087960;28;20207;-63
2022/07/26 10:00:54;;;;;;;5.10;3.33;;;24.40;50.60;;;27.13;37.98;101413.75;5087450;28;20207;-63
2022/07/26 10:03:30;;;;;;;4.83;2.10;;;24.20;51.80;;;27.02;38.34;101414.00;5089135;28;20215;-61
2022/07/26 10:05:58;;;;;;;2.87;2.57;;;24.10;52.40;;;27.01;38.23;101418.56;5083579;28;20193;-62
2022/07/26 10:08:28;;;;;;;5.07;1.87;;;24.00;53.00;;;27.05;37.96;101413.47;5082892;28;20235;-62
2022/07/26 10:11:05;;;;;;;5.57;2.57;;;23.90;52.30;;;27.23;38.24;101415.66;5079197;28;20196;-62
2022/07/26 10:13:33;;;;;;;3.97;2.97;;;23.90;53.00;;;27.39;37.82;101420.03;5092077;28;20192;-62
2022/07/26 10:16:01;;;;;;;5.37;1.80;;;23.90;52.50;;;27.33;37.43;101427.31;5090124;28;20290;-63
2022/07/26 10:18:49;;;;;;;4.30;1.97;;;23.90;52.10;;;27.14;37.43;101433.47;5088970;28;20197;-63
2022/07/26 10:21:20;;;;;;;3.87;1.70;;;23.90;51.80;;;27.14;37.36;101428.06;5071649;28;20225;-62
2022/07/26 10:23:52;;;;;;;3.33;2.50;;;23.90;51.60;;;27.20;37.21;101432.41;5087193;28;20233;-62
2022/07/26 10:26:37;;;;;;;4.17;2.50;;;23.80;52.00;;;27.25;36.86;101427.81;5081884;28;20205;-64